Time;durP1;ratioP1;P1;durP2;ratioP2;P2;SDS_P1;SDS_P2;PMS_P1;PMS_P2;Temp;Humidity;BMP_temperature;BMP_pressure;BME280_temperature;BME280_humidity;BME280_pressure;Samples;Min_cycle;Max_cycle;Signal;HPM_P1;HPM_P2
2022/05/06 00:02:03;;;;;;;16.17;9.15;;;15.00;99.90;;;;;;7401906;19;20135;-80
2022/05/06 00:04:29;;;;;;;13.93;9.35;;;15.10;99.90;;;;;;7395782;19;20605;-80
2022/05/06 00:06:55;;;;;;;16.15;9.18;;;15.10;99.90;;;;;;7393437;19;20142;-78
2022/05/06 00:09:22;;;;;;;18.13;9.43;;;15.10;99.90;;;;;;7396924;19;20131;-81
2022/05/06 00:11:49;;;;;;;11.38;8.45;;;14.90;99.90;;;;;;7401216;19;20134;-79
2022/05/06 00:14:16;;;;;;;13.65;8.63;;;14.80;99.90;;;;;;7402512;19;20178;-81
2022/05/06 00:16:43;;;;;;;12.20;9.23;;;14.90;99.90;;;;;;7394658;19;20127;-79
2022/05/06 00:19:09;;;;;;;12.30;8.50;;;14.80;99.90;;;;;;7395993;19;20162;-79
2022/05/06 00:21:35;;;;;;;12.85;9.57;;;14.90;99.90;;;;;;7391956;19;20135;-79
2022/05/06 00:24:05;;;;;;;15.45;9.73;;;15.00;99.90;;;;;;7400150;19;20202;-80
2022/05/06 00:26:31;;;;;;;14.75;10.30;;;15.10;99.90;;;;;;7398754;19;20139;-78
2022/05/06 00:28:57;;;;;;;13.25;9.43;;;15.30;99.90;;;;;;7392515;19;20174;-79
2022/05/06 00:31:23;;;;;;;15.02;9.95;;;15.20;99.90;;;;;;7392338;19;20143;-78
2022/05/06 00:33:48;;;;;;;14.35;9.82;;;15.20;99.90;;;;;;7393795;19;20198;-80
2022/05/06 00:36:15;;;;;;;12.02;9.07;;;15.20;99.90;;;;;;7393703;19;20134;-80
2022/05/06 00:38:42;;;;;;;16.13;10.00;;;15.10;99.90;;;;;;7397684;19;20181;-79
2022/05/06 00:41:09;;;;;;;13.15;8.90;;;15.00;99.90;;;;;;7398436;19;20155;-78
2022/05/06 00:43:39;;;;;;;14.68;10.65;;;14.90;99.90;;;;;;7400540;19;20135;-79
2022/05/06 00:46:12;;;;;;;15.38;9.90;;;14.90;99.90;;;;;;7401191;19;20156;-78
2022/05/06 00:48:40;;;;;;;15.07;9.98;;;15.00;99.90;;;;;;7397846;19;20133;-78
2022/05/06 00:51:06;;;;;;;12.02;9.13;;;14.90;99.90;;;;;;7393896;19;20131;-79
2022/05/06 00:53:35;;;;;;;12.63;8.85;;;14.90;99.90;;;;;;7397090;19;20153;-78
2022/05/06 00:56:01;;;;;;;15.27;9.88;;;14.80;99.90;;;;;;7395229;19;20686;-78
2022/05/06 00:58:30;;;;;;;14.30;9.35;;;14.90;99.90;;;;;;7398474;19;20145;-81
2022/05/06 01:00:56;;;;;;;13.48;9.25;;;14.80;99.90;;;;;;7393130;19;20127;-80
2022/05/06 01:03:22;;;;;;;15.25;9.73;;;14.90;99.90;;;;;;7395330;19;20481;-80
2022/05/06 01:05:51;;;;;;;14.93;10.00;;;14.90;99.90;;;;;;7393678;19;20142;-79
2022/05/06 01:08:16;;;;;;;15.75;9.60;;;14.70;99.90;;;;;;7399344;19;20688;-78
2022/05/06 01:10:43;;;;;;;13.63;9.35;;;14.90;99.90;;;;;;7399685;19;20138;-78
2022/05/06 01:13:09;;;;;;;13.98;9.35;;;14.90;99.90;;;;;;7389887;19;20548;-79
2022/05/06 01:15:34;;;;;;;14.95;8.90;;;14.90;99.90;;;;;;7395777;19;20146;-80
2022/05/06 01:18:00;;;;;;;14.80;9.50;;;14.80;99.90;;;;;;7394671;19;20172;-79
2022/05/06 01:20:27;;;;;;;12.75;9.65;;;14.80;99.90;;;;;;7391056;19;20130;-78
2022/05/06 01:22:56;;;;;;;15.88;9.52;;;14.70;99.90;;;;;;7391419;19;20140;-78
2022/05/06 01:25:23;;;;;;;14.48;9.90;;;14.70;99.90;;;;;;7395026;19;20123;-80
2022/05/06 01:28:03;;;;;;;14.00;9.73;;;14.70;99.90;;;;;;7394959;19;20135;-80
2022/05/06 01:30:47;;;;;;;13.57;9.77;;;14.70;99.90;;;;;;7394622;19;20146;-78
2022/05/06 01:33:18;;;;;;;15.52;9.30;;;14.60;99.90;;;;;;7393103;19;20130;-80
2022/05/06 01:36:06;;;;;;;16.92;9.75;;;14.60;99.90;;;;;;7394497;19;20149;-78
2022/05/06 01:38:38;;;;;;;15.57;9.73;;;14.70;99.90;;;;;;7390492;19;20214;-79
2022/05/06 01:41:10;;;;;;;15.45;9.93;;;14.90;99.90;;;;;;7394262;19;20157;-79
2022/05/06 01:43:43;;;;;;;12.80;9.65;;;15.00;99.90;;;;;;7388859;19;20134;-80
2022/05/06 01:46:16;;;;;;;15.77;10.65;;;14.90;99.90;;;;;;7390014;19;20139;-80
2022/05/06 01:48:44;;;;;;;16.58;10.15;;;15.00;99.90;;;;;;7395391;19;20127;-78
2022/05/06 01:51:13;;;;;;;14.15;10.13;;;15.00;99.90;;;;;;7399640;19;20134;-79
2022/05/06 01:53:40;;;;;;;15.02;9.68;;;14.70;99.90;;;;;;7400347;19;20135;-80
2022/05/06 01:56:07;;;;;;;15.25;10.10;;;14.50;99.90;;;;;;7391402;19;21151;-78
2022/05/06 01:58:33;;;;;;;15.35;9.88;;;14.30;99.90;;;;;;7391481;19;20134;-79
2022/05/06 02:00:58;;;;;;;16.40;9.68;;;14.60;99.90;;;;;;7395787;19;20178;-78
2022/05/06 02:06:09;;;;;;;14.32;9.85;;;14.70;99.90;;;;;;7395359;19;20238;-79
2022/05/06 02:08:35;;;;;;;15.88;9.57;;;14.70;99.90;;;;;;7391486;19;20518;-78
2022/05/06 02:11:01;;;;;;;14.85;9.82;;;14.60;99.90;;;;;;7390774;19;20246;-79
2022/05/06 02:13:27;;;;;;;14.23;10.10;;;14.30;99.90;;;;;;7393286;19;20194;-80
2022/05/06 02:15:53;;;;;;;14.18;9.60;;;14.60;99.90;;;;;;7400815;19;20156;-78
2022/05/06 02:18:19;;;;;;;13.45;9.48;;;14.70;99.90;;;;;;7393898;19;20134;-79
2022/05/06 02:20:45;;;;;;;14.35;9.98;;;14.70;99.90;;;;;;7389599;19;20476;-78
2022/05/06 02:23:12;;;;;;;15.25;9.30;;;14.90;99.90;;;;;;7391460;19;20131;-79
2022/05/06 02:25:38;;;;;;;14.57;9.35;;;14.80;99.90;;;;;;7388680;19;20574;-79
2022/05/06 02:28:04;;;;;;;13.95;8.95;;;14.80;99.90;;;;;;7387216;19;20134;-78
2022/05/06 02:33:23;;;;;;;12.43;8.50;;;14.80;99.90;;;;;;7389777;19;20135;-81
2022/05/06 02:35:49;;;;;;;13.30;9.20;;;14.80;99.90;;;;;;7388749;19;20123;-79
2022/05/06 02:38:15;;;;;;;14.25;9.15;;;14.30;99.90;;;;;;7395438;19;20202;-81
2022/05/06 02:40:41;;;;;;;14.02;8.57;;;14.40;99.90;;;;;;7391145;19;20204;-78
2022/05/06 02:43:07;;;;;;;12.10;8.45;;;14.20;99.90;;;;;;7400759;19;20142;-79
2022/05/06 02:45:33;;;;;;;17.27;9.25;;;14.50;99.90;;;;;;7398329;19;20152;-78
2022/05/06 02:48:00;;;;;;;13.45;9.50;;;14.60;99.90;;;;;;7394240;19;20134;-80
2022/05/06 02:50:27;;;;;;;14.52;9.05;;;14.70;99.90;;;;;;7392453;19;20486;-80
2022/05/06 02:52:53;;;;;;;14.13;9.27;;;14.70;99.90;;;;;;7390679;19;20143;-79
2022/05/06 02:55:20;;;;;;;15.07;8.95;;;14.80;99.90;;;;;;7391480;19;20142;-79
2022/05/06 02:57:46;;;;;;;12.90;8.40;;;14.80;99.90;;;;;;7395893;19;20158;-80
2022/05/06 03:00:12;;;;;;;11.35;8.20;;;14.70;99.90;;;;;;7395081;19;20139;-81
2022/05/06 03:02:40;;;;;;;12.15;8.40;;;14.30;99.90;;;;;;7394405;19;20243;-80
2022/05/06 03:05:06;;;;;;;13.15;9.20;;;14.30;99.90;;;;;;7389238;19;20153;-80
2022/05/06 03:07:32;;;;;;;16.73;9.02;;;14.50;99.90;;;;;;7398413;19;20123;-78
2022/05/06 03:09:58;;;;;;;13.73;9.17;;;14.60;99.90;;;;;;7395659;19;20141;-79
2022/05/06 03:12:26;;;;;;;12.30;8.52;;;14.70;99.90;;;;;;7403049;19;20166;-80
2022/05/06 03:14:53;;;;;;;15.85;8.98;;;14.80;99.90;;;;;;7404571;19;20219;-79
2022/05/06 03:17:19;;;;;;;11.23;8.07;;;14.80;99.90;;;;;;7403974;19;20131;-80
2022/05/06 03:19:44;;;;;;;10.38;7.75;;;14.80;99.90;;;;;;7398019;19;20137;-79
2022/05/06 03:22:11;;;;;;;11.97;8.47;;;14.70;99.90;;;;;;7399366;19;20612;-79
2022/05/06 03:24:37;;;;;;;13.32;8.20;;;14.60;99.90;;;;;;7398896;19;20123;-80
2022/05/06 03:27:03;;;;;;;14.07;8.63;;;14.80;99.90;;;;;;7395934;19;20133;-79
2022/05/06 03:29:29;;;;;;;11.43;8.57;;;14.80;99.90;;;;;;7396292;19;20166;-78
2022/05/06 03:31:56;;;;;;;12.00;8.30;;;14.70;99.90;;;;;;7399933;19;20583;-78
2022/05/06 03:34:22;;;;;;;11.52;8.73;;;14.80;99.90;;;;;;7397224;19;20135;-80
2022/05/06 03:36:48;;;;;;;11.15;8.00;;;14.50;99.90;;;;;;7395353;19;20147;-79
2022/05/06 03:39:14;;;;;;;12.80;8.77;;;14.50;99.90;;;;;;7398539;19;20135;-80
2022/05/06 03:41:39;;;;;;;11.95;8.18;;;14.70;99.90;;;;;;7400217;19;20487;-81
2022/05/06 03:44:08;;;;;;;10.75;7.63;;;14.70;99.90;;;;;;7410273;19;20123;-80
2022/05/06 03:46:34;;;;;;;10.88;8.02;;;14.70;99.90;;;;;;7397159;19;20137;-80
2022/05/06 03:49:01;;;;;;;12.97;7.57;;;14.60;99.90;;;;;;7400349;19;20198;-80
2022/05/06 03:51:31;;;;;;;13.00;7.85;;;14.70;99.90;;;;;;7397422;19;20127;-78
2022/05/06 03:53:57;;;;;;;12.43;7.70;;;14.70;99.90;;;;;;7393200;19;20126;-80
2022/05/06 03:56:24;;;;;;;11.48;7.35;;;14.60;99.90;;;;;;7392120;19;20133;-80
2022/05/06 03:58:53;;;;;;;9.45;7.15;;;14.70;99.90;;;;;;7391226;19;20149;-78
2022/05/06 04:01:19;;;;;;;12.93;7.65;;;14.60;99.90;;;;;;7391666;19;20168;-77
2022/05/06 04:03:48;;;;;;;13.27;7.63;;;14.30;99.90;;;;;;7394902;19;20146;-78
2022/05/06 04:06:14;;;;;;;10.80;7.57;;;14.50;99.90;;;;;;7395674;19;20222;-78
2022/05/06 04:08:41;;;;;;;10.53;7.63;;;14.60;99.90;;;;;;7390344;19;20138;-78
2022/05/06 04:11:09;;;;;;;10.15;7.32;;;14.60;99.90;;;;;;7387791;19;20130;-78
2022/05/06 04:13:35;;;;;;;8.75;6.75;;;14.40;99.90;;;;;;7389957;19;20138;-79
2022/05/06 04:16:04;;;;;;;10.70;7.27;;;14.60;99.90;;;;;;7394269;19;20130;-79
2022/05/06 04:18:30;;;;;;;10.32;7.18;;;14.70;99.90;;;;;;7391490;19;20134;-77
2022/05/06 04:23:41;;;;;;;10.15;6.82;;;14.70;99.90;;;;;;7389612;19;20180;-78
2022/05/06 04:26:12;;;;;;;12.13;8.13;;;14.70;99.90;;;;;;7396064;19;20166;-78
2022/05/06 04:28:39;;;;;;;10.13;8.17;;;14.70;99.90;;;;;;7390913;19;20595;-78
2022/05/06 04:31:06;;;;;;;13.38;8.43;;;14.70;99.90;;;;;;7387889;19;20576;-77
2022/05/06 04:33:32;;;;;;;10.30;7.50;;;14.60;99.90;;;;;;7390613;19;20163;-77
2022/05/06 04:35:59;;;;;;;10.07;7.17;;;14.40;99.90;;;;;;7387970;19;20131;-78
2022/05/06 04:38:26;;;;;;;10.90;7.67;;;14.50;99.90;;;;;;7390378;19;20176;-78
2022/05/06 04:40:54;;;;;;;10.75;7.47;;;14.60;99.90;;;;;;7387865;19;20146;-77
2022/05/06 04:43:20;;;;;;;9.98;7.28;;;14.70;99.90;;;;;;7390530;19;20502;-77
2022/05/06 04:45:48;;;;;;;12.82;7.78;;;14.70;99.90;;;;;;7397370;19;20138;-76
2022/05/06 04:48:14;;;;;;;12.60;8.00;;;14.70;99.90;;;;;;7388952;19;20142;-76
2022/05/06 04:50:41;;;;;;;10.57;8.00;;;14.60;99.90;;;;;;7388392;19;20134;-77
2022/05/06 04:53:09;;;;;;;9.98;7.07;;;14.40;99.90;;;;;;7388447;19;20141;-78
2022/05/06 04:55:40;;;;;;;12.87;8.10;;;14.30;99.90;;;;;;7394003;19;20606;-78
2022/05/06 04:58:07;;;;;;;10.75;7.60;;;14.40;99.90;;;;;;7394181;19;20158;-78
2022/05/06 05:00:33;;;;;;;11.52;7.18;;;14.50;99.90;;;;;;7387898;19;20130;-78
2022/05/06 05:03:00;;;;;;;9.45;7.07;;;14.60;99.90;;;;;;7392505;19;20146;-79
2022/05/06 05:05:26;;;;;;;7.83;6.83;;;14.60;99.90;;;;;;7388724;19;20138;-79
2022/05/06 05:07:53;;;;;;;8.90;6.93;;;14.50;99.90;;;;;;7395828;19;20135;-76
2022/05/06 05:10:19;;;;;;;10.43;7.00;;;14.30;99.90;;;;;;7387780;19;20135;-77
2022/05/06 05:12:45;;;;;;;8.15;6.70;;;14.20;99.90;;;;;;7392787;19;20135;-82
2022/05/06 05:15:11;;;;;;;7.63;6.53;;;14.30;99.90;;;;;;7392503;19;20159;-81
2022/05/06 05:17:37;;;;;;;9.40;7.18;;;14.40;99.90;;;;;;7391323;19;20158;-75
2022/05/06 05:20:04;;;;;;;11.10;7.47;;;14.40;99.90;;;;;;7391667;19;20143;-81
2022/05/06 05:22:31;;;;;;;9.65;6.65;;;14.40;99.90;;;;;;7392330;19;20134;-80
2022/05/06 05:24:57;;;;;;;10.43;7.07;;;14.20;99.90;;;;;;7393717;19;20139;-82
2022/05/06 05:27:23;;;;;;;11.27;7.33;;;14.40;99.90;;;;;;7392874;19;20149;-82
2022/05/06 05:29:48;;;;;;;9.40;7.40;;;14.40;99.90;;;;;;7397166;19;20170;-75
2022/05/06 05:32:14;;;;;;;10.63;8.17;;;14.30;99.90;;;;;;7399969;19;20618;-81
2022/05/06 05:34:42;;;;;;;9.67;7.17;;;14.30;99.90;;;;;;7386928;19;20131;-79
2022/05/06 05:37:09;;;;;;;11.50;7.13;;;14.40;99.90;;;;;;7386957;19;20151;-81
2022/05/06 05:39:36;;;;;;;9.85;7.32;;;14.40;99.90;;;;;;7389472;19;20141;-74
2022/05/06 05:42:03;;;;;;;8.27;6.70;;;14.50;99.90;;;;;;7387670;19;20146;-76
2022/05/06 05:49:58;;;;;;;11.63;7.53;;;14.20;99.90;;;;;;7392126;19;20143;-76
2022/05/06 05:52:23;;;;;;;8.93;7.00;;;14.20;99.90;;;;;;7398008;19;20138;-76
2022/05/06 05:54:49;;;;;;;8.75;6.85;;;14.10;99.90;;;;;;7391196;19;20594;-76
2022/05/06 05:57:15;;;;;;;9.07;6.40;;;14.20;99.90;;;;;;7390433;19;20127;-81
2022/05/06 05:59:41;;;;;;;10.83;6.73;;;14.30;99.90;;;;;;7388584;19;20130;-80
2022/05/06 06:02:10;;;;;;;12.57;7.57;;;14.20;99.90;;;;;;7387859;19;20194;-75
2022/05/06 06:04:38;;;;;;;9.07;6.93;;;14.10;99.90;;;;;;7385935;19;20127;-75
2022/05/06 06:07:04;;;;;;;10.40;7.90;;;14.20;99.90;;;;;;7385886;19;20190;-80
2022/05/06 06:09:32;;;;;;;9.60;7.23;;;14.30;99.90;;;;;;7385923;19;20131;-76
2022/05/06 06:11:58;;;;;;;11.07;7.10;;;14.20;99.90;;;;;;7393741;19;20123;-77
2022/05/06 06:14:24;;;;;;;10.23;6.63;;;14.30;99.90;;;;;;7400147;19;20127;-77
2022/05/06 06:16:50;;;;;;;12.80;6.83;;;14.30;99.90;;;;;;7391830;19;20295;-75
2022/05/06 06:19:16;;;;;;;11.45;7.43;;;14.30;99.90;;;;;;7386463;19;20185;-81
2022/05/06 06:21:43;;;;;;;10.07;7.27;;;14.40;99.90;;;;;;7387482;19;20134;-76
2022/05/06 06:24:09;;;;;;;11.60;7.37;;;14.20;99.90;;;;;;7388484;19;20704;-80
2022/05/06 06:26:35;;;;;;;9.93;6.93;;;14.20;99.90;;;;;;7386537;19;20590;-76
2022/05/06 06:29:02;;;;;;;11.20;7.07;;;14.20;99.90;;;;;;7386058;19;20184;-74
2022/05/06 06:31:32;;;;;;;9.47;7.47;;;14.30;99.90;;;;;;7388703;19;20127;-76
2022/05/06 06:34:01;;;;;;;11.60;7.25;;;14.30;99.90;;;;;;7390301;19;20123;-81
2022/05/06 06:36:27;;;;;;;9.30;7.03;;;14.40;99.90;;;;;;7394117;19;20255;-76
2022/05/06 06:38:54;;;;;;;11.50;6.93;;;14.40;99.90;;;;;;7392465;19;20325;-75
2022/05/06 06:41:23;;;;;;;9.43;6.90;;;14.30;99.90;;;;;;7395863;19;20538;-82
2022/05/06 06:43:49;;;;;;;11.63;8.73;;;14.40;99.90;;;;;;7393523;19;20590;-82
2022/05/06 06:46:15;;;;;;;11.63;6.97;;;14.40;99.90;;;;;;7393118;19;20143;-81
2022/05/06 06:48:42;;;;;;;12.00;7.17;;;14.40;99.90;;;;;;7393984;19;20133;-82
2022/05/06 06:51:08;;;;;;;9.17;6.40;;;14.40;99.90;;;;;;7392437;19;20129;-81
2022/05/06 06:53:34;;;;;;;15.57;11.27;;;14.30;99.90;;;;;;7393152;19;20131;-76
2022/05/06 06:56:00;;;;;;;12.00;7.37;;;14.30;99.90;;;;;;7395753;19;20130;-75
2022/05/06 06:58:26;;;;;;;9.43;7.10;;;14.50;99.90;;;;;;7396670;19;20130;-75
2022/05/06 07:00:53;;;;;;;10.10;6.60;;;14.40;99.90;;;;;;7396519;19;20154;-81
2022/05/06 07:03:20;;;;;;;10.43;6.50;;;14.30;99.90;;;;;;7396014;19;20135;-76
2022/05/06 07:11:53;;;;;;;9.53;6.07;;;14.40;99.90;;;;;;7390825;19;20147;-76
2022/05/06 07:14:21;;;;;;;11.70;7.50;;;14.40;99.90;;;;;;7393274;19;20135;-76
2022/05/06 07:16:51;;;;;;;11.53;7.10;;;14.40;99.90;;;;;;7400935;19;20523;-81
2022/05/06 07:19:17;;;;;;;11.67;6.17;;;14.30;99.90;;;;;;7398091;19;20166;-83
2022/05/06 07:21:44;;;;;;;10.13;6.93;;;14.40;99.90;;;;;;7393783;19;20207;-76
2022/05/06 07:24:10;;;;;;;10.90;5.90;;;14.40;99.90;;;;;;7395820;19;20135;-76
2022/05/06 07:26:36;;;;;;;9.00;6.57;;;14.60;99.90;;;;;;7392106;19;20527;-82
2022/05/06 07:29:04;;;;;;;8.93;6.50;;;14.70;99.90;;;;;;7390990;19;20139;-77
2022/05/06 07:31:31;;;;;;;9.37;6.20;;;14.60;99.90;;;;;;7391410;19;20135;-80
2022/05/06 07:33:59;;;;;;;8.73;5.77;;;14.70;99.90;;;;;;7391921;19;20509;-79
2022/05/06 07:36:26;;;;;;;8.07;6.03;;;14.70;99.90;;;;;;7391624;19;20146;-80
2022/05/06 07:38:54;;;;;;;8.23;6.07;;;14.70;99.90;;;;;;7398367;19;20474;-76
2022/05/06 07:41:20;;;;;;;7.13;5.60;;;14.70;99.90;;;;;;7392097;19;20161;-82
2022/05/06 07:43:47;;;;;;;6.82;5.28;;;14.70;99.90;;;;;;7391532;19;20151;-75
2022/05/06 07:46:13;;;;;;;9.48;5.28;;;14.70;99.90;;;;;;7394647;19;20127;-80
2022/05/06 07:48:39;;;;;;;8.90;5.03;;;14.80;99.90;;;;;;7395202;19;20163;-76
2022/05/06 07:51:05;;;;;;;7.20;5.20;;;14.80;99.90;;;;;;7388328;19;20131;-80
2022/05/06 07:53:32;;;;;;;6.00;4.70;;;14.80;99.90;;;;;;7392306;19;20155;-82
2022/05/06 07:55:58;;;;;;;6.40;5.18;;;14.80;99.90;;;;;;7391393;19;20130;-75
2022/05/06 07:58:24;;;;;;;6.23;5.03;;;14.80;99.90;;;;;;7390162;19;20677;-75
2022/05/06 08:00:50;;;;;;;6.80;4.77;;;14.70;99.90;;;;;;7393607;19;20151;-76
2022/05/06 08:06:02;;;;;;;7.73;5.03;;;14.70;99.90;;;;;;7404302;19;20131;-80
2022/05/06 08:08:30;;;;;;;5.77;4.30;;;14.80;99.90;;;;;;7392751;19;20146;-82
2022/05/06 08:10:57;;;;;;;9.23;5.97;;;14.80;99.90;;;;;;7394187;19;20151;-75
2022/05/06 08:13:23;;;;;;;6.10;5.00;;;14.80;99.90;;;;;;7393721;19;20210;-76
2022/05/06 08:15:50;;;;;;;7.45;5.13;;;14.90;99.90;;;;;;7396001;19;20155;-79
2022/05/06 08:18:16;;;;;;;7.80;5.77;;;15.00;99.90;;;;;;7391890;19;20145;-76
2022/05/06 08:20:41;;;;;;;7.18;4.63;;;15.00;99.90;;;;;;7392913;19;20137;-76
2022/05/06 08:23:08;;;;;;;6.70;4.70;;;15.00;99.90;;;;;;7392584;19;20720;-82
2022/05/06 08:25:35;;;;;;;5.93;4.63;;;15.10;99.90;;;;;;7405389;19;20194;-83
2022/05/06 08:28:01;;;;;;;6.03;4.97;;;15.10;99.90;;;;;;7390111;19;20134;-81
2022/05/06 08:30:27;;;;;;;6.68;4.78;;;15.10;99.90;;;;;;7388275;19;20146;-75
2022/05/06 08:32:53;;;;;;;8.70;5.10;;;15.00;99.90;;;;;;7394353;19;20146;-81
2022/05/06 08:35:19;;;;;;;7.30;5.17;;;15.00;99.90;;;;;;7393369;19;20142;-82
2022/05/06 08:37:48;;;;;;;6.90;5.38;;;14.90;99.90;;;;;;7390657;19;20194;-79
2022/05/06 08:40:18;;;;;;;8.57;4.20;;;15.10;99.90;;;;;;7390349;19;20147;-79
2022/05/06 08:42:45;;;;;;;6.18;4.78;;;15.00;99.90;;;;;;7394875;19;20145;-82
2022/05/06 08:50:52;;;;;;;7.00;4.33;;;15.20;99.90;;;;;;7388927;19;20401;-76
2022/05/06 08:53:20;;;;;;;5.88;4.35;;;15.20;99.90;;;;;;7392153;19;20138;-83
2022/05/06 08:55:47;;;;;;;4.63;3.70;;;15.20;99.90;;;;;;7391060;19;20167;-81
2022/05/06 08:58:16;;;;;;;5.27;4.50;;;15.30;99.90;;;;;;7391196;19;20142;-81
2022/05/06 09:00:42;;;;;;;6.47;4.30;;;15.30;99.90;;;;;;7390951;19;20138;-82
2022/05/06 09:03:08;;;;;;;7.80;3.93;;;15.40;99.90;;;;;;7390299;19;20435;-76
2022/05/06 09:05:51;;;;;;;5.88;4.85;;;15.40;99.90;;;;;;7396082;19;20139;-83
2022/05/06 09:08:19;;;;;;;5.88;4.38;;;15.40;99.90;;;;;;7390774;19;20602;-81
2022/05/06 09:11:04;;;;;;;8.73;5.07;;;15.30;99.90;;;;;;7388342;19;20142;-75
2022/05/06 09:13:33;;;;;;;5.78;4.22;;;15.30;99.90;;;;;;7389150;19;20855;-81
2022/05/06 09:19:20;;;;;;;6.40;4.55;;;15.50;99.90;;;;;;7389497;19;20174;-75
2022/05/06 09:22:14;;;;;;;4.70;4.18;;;15.60;99.90;;;;;;7388879;19;20630;-80
2022/05/06 09:24:42;;;;;;;6.27;3.87;;;15.50;99.90;;;;;;7392006;19;20171;-80
2022/05/06 09:27:14;;;;;;;6.22;4.30;;;15.50;99.90;;;;;;7395504;19;20130;-75
2022/05/06 09:29:42;;;;;;;8.60;3.95;;;15.50;99.90;;;;;;7393848;19;20509;-79
2022/05/06 09:32:26;;;;;;;5.00;4.22;;;15.50;99.90;;;;;;7391314;19;20150;-78
2022/05/06 09:34:56;;;;;;;6.75;4.07;;;15.70;99.90;;;;;;7392429;19;20123;-81
2022/05/06 09:37:43;;;;;;;4.70;4.20;;;15.80;99.90;;;;;;7394571;19;20131;-79
2022/05/06 09:40:13;;;;;;;6.05;3.97;;;15.80;99.90;;;;;;7387820;19;20492;-79
2022/05/06 09:42:43;;;;;;;6.88;4.65;;;15.80;99.90;;;;;;7386910;19;20584;-75
2022/05/06 09:45:12;;;;;;;6.57;4.57;;;15.70;99.90;;;;;;7389761;19;20141;-76
2022/05/06 09:47:40;;;;;;;6.65;4.18;;;15.60;99.90;;;;;;7386515;19;20246;-75
2022/05/06 09:50:08;;;;;;;5.60;4.32;;;15.70;99.90;;;;;;7390285;19;20489;-75
2022/05/06 09:52:35;;;;;;;5.70;3.70;;;15.80;99.90;;;;;;7393008;19;20130;-75
2022/05/06 09:55:03;;;;;;;6.13;4.47;;;16.00;99.90;;;;;;7386139;19;20133;-79
2022/05/06 09:57:30;;;;;;;6.83;4.70;;;16.00;99.90;;;;;;7391994;19;20193;-80
2022/05/06 09:59:56;;;;;;;9.73;4.47;;;16.00;99.90;;;;;;7388788;19;20507;-82
2022/05/06 10:02:22;;;;;;;5.72;4.07;;;16.00;99.90;;;;;;7387494;19;20123;-76
2022/05/06 10:04:49;;;;;;;8.38;4.20;;;16.10;99.90;;;;;;7386433;19;20137;-76
2022/05/06 10:07:17;;;;;;;4.63;4.22;;;16.10;99.90;;;;;;7390031;19;20674;-79
2022/05/06 10:10:01;;;;;;;7.70;4.35;;;16.30;99.90;;;;;;7387103;19;20123;-75
2022/05/06 10:12:35;;;;;;;5.70;4.45;;;16.20;99.90;;;;;;7391400;19;20130;-74
2022/05/06 10:15:05;;;;;;;8.88;4.95;;;16.20;99.90;;;;;;7399644;19;20122;-75
2022/05/06 10:17:51;;;;;;;5.95;4.25;;;16.40;99.90;;;;;;7392267;19;20139;-75
2022/05/06 10:20:36;;;;;;;9.57;4.53;;;16.70;99.90;;;;;;7387817;19;20130;-81
2022/05/06 10:23:11;;;;;;;6.45;4.22;;;16.70;99.90;;;;;;7387574;19;20131;-75
2022/05/06 10:25:40;;;;;;;7.30;3.83;;;16.80;99.90;;;;;;7388434;19;20121;-81
2022/05/06 10:34:18;;;;;;;5.78;4.22;;;17.20;99.90;;;;;;7391058;19;20134;-75
2022/05/06 10:36:45;;;;;;;7.13;3.80;;;17.40;99.90;;;;;;7391076;19;20134;-76
2022/05/06 10:39:28;;;;;;;4.50;3.30;;;17.50;99.90;;;;;;7389417;19;20133;-80
2022/05/06 10:42:11;;;;;;;5.10;3.83;;;17.50;99.90;;;;;;7385558;19;20620;-80
2022/05/06 10:44:45;;;;;;;7.45;3.97;;;17.60;99.90;;;;;;7386795;19;20597;-79
2022/05/06 10:47:19;;;;;;;5.40;3.80;;;17.80;99.90;;;;;;7386887;19;20239;-80
2022/05/06 10:49:51;;;;;;;4.25;3.30;;;17.80;99.90;;;;;;7385807;19;20137;-75
2022/05/06 10:52:25;;;;;;;11.98;4.20;;;17.70;99.90;;;;;;7390020;19;20552;-75
2022/05/06 10:54:55;;;;;;;5.80;3.63;;;17.70;99.90;;;;;;7387172;19;20135;-74
2022/05/06 10:57:25;;;;;;;5.55;3.80;;;17.60;99.90;;;;;;7392105;19;20126;-76
2022/05/06 10:59:56;;;;;;;4.28;3.33;;;17.80;99.90;;;;;;7389325;19;20134;-76
2022/05/06 11:02:28;;;;;;;3.70;3.03;;;17.90;99.90;;;;;;7387750;19;20157;-78
2022/05/06 11:05:02;;;;;;;4.53;2.83;;;17.90;99.90;;;;;;7385749;19;20130;-79
2022/05/06 11:07:31;;;;;;;5.78;2.85;;;18.00;99.90;;;;;;7386119;19;20133;-80
2022/05/06 11:09:57;;;;;;;4.70;2.70;;;18.00;99.90;;;;;;7385505;19;20512;-75
2022/05/06 11:12:30;;;;;;;8.07;5.88;;;18.00;99.90;;;;;;7385401;19;20123;-75
2022/05/06 11:15:02;;;;;;;4.20;3.10;;;18.00;99.90;;;;;;7389211;19;20572;-81
2022/05/06 11:17:27;;;;;;;4.57;2.95;;;18.20;99.90;;;;;;7392328;19;20610;-76
2022/05/06 11:19:54;;;;;;;4.68;2.90;;;18.30;99.90;;;;;;7386993;19;20129;-80
2022/05/06 11:22:23;;;;;;;3.13;2.53;;;18.30;99.90;;;;;;7388838;19;20138;-80
2022/05/06 11:24:48;;;;;;;5.07;3.03;;;18.40;99.90;;;;;;7388404;19;20131;-81
2022/05/06 11:27:21;;;;;;;4.72;2.85;;;18.50;99.90;;;;;;7390857;19;20149;-77
2022/05/06 11:29:47;;;;;;;3.95;2.47;;;18.60;99.90;;;;;;7389907;19;20201;-76
2022/05/06 11:32:14;;;;;;;5.32;3.00;;;18.70;99.90;;;;;;7393140;19;20473;-81
2022/05/06 11:34:49;;;;;;;3.97;2.88;;;18.60;99.90;;;;;;7395600;19;20154;-79
2022/05/06 11:37:27;;;;;;;9.88;3.10;;;18.60;99.90;;;;;;7391739;19;20190;-78
2022/05/06 11:40:18;;;;;;;4.07;2.85;;;18.60;99.90;;;;;;7397388;19;20138;-76
2022/05/06 11:42:40;;;;;;;6.28;3.30;;;18.60;99.90;;;;;;7394609;19;20134;-76
2022/05/06 11:47:51;;;;;;;4.07;2.60;;;18.70;99.90;;;;;;7391412;19;20138;-79
2022/05/06 11:50:17;;;;;;;5.00;2.58;;;18.70;99.90;;;;;;7392418;19;20142;-82
2022/05/06 11:52:45;;;;;;;4.22;2.55;;;18.70;99.90;;;;;;7390498;19;20167;-80
2022/05/06 11:55:12;;;;;;;4.82;3.05;;;18.70;99.90;;;;;;7393280;19;20170;-76
2022/05/06 11:57:39;;;;;;;3.47;2.72;;;18.70;99.90;;;;;;7396233;19;20174;-82
2022/05/06 12:00:08;;;;;;;5.80;3.30;;;18.60;99.90;;;;;;7398093;19;20139;-80
2022/05/06 12:02:34;;;;;;;4.13;2.70;;;18.50;99.90;;;;;;7395626;19;20130;-80
2022/05/06 12:05:00;;;;;;;2.92;2.42;;;18.50;99.90;;;;;;7391980;19;20214;-79
2022/05/06 12:07:48;;;;;;;3.72;2.50;;;18.40;99.90;;;;;;7389974;19;20149;-76
2022/05/06 12:10:37;;;;;;;4.18;3.17;;;18.50;99.90;;;;;;7389960;19;20872;-82
2022/05/06 12:13:07;;;;;;;2.88;2.47;;;18.60;99.90;;;;;;7390592;19;20438;-81
2022/05/06 12:15:38;;;;;;;4.93;3.10;;;18.60;99.90;;;;;;7396198;19;20149;-81
2022/05/06 12:18:05;;;;;;;3.75;2.95;;;18.60;99.90;;;;;;7392770;19;20142;-76
2022/05/06 12:20:37;;;;;;;3.92;2.90;;;18.60;99.90;;;;;;7391648;19;20134;-75
2022/05/06 12:23:04;;;;;;;3.20;2.75;;;18.60;99.90;;;;;;7397462;19;20134;-81
2022/05/06 12:25:31;;;;;;;4.57;2.50;;;18.60;99.90;;;;;;7392574;19;20224;-81
2022/05/06 12:28:04;;;;;;;4.00;3.00;;;18.60;99.90;;;;;;7390789;19;20160;-75
2022/05/06 12:30:32;;;;;;;6.93;2.88;;;18.70;99.90;;;;;;7389384;19;20143;-76
2022/05/06 12:33:04;;;;;;;3.30;2.53;;;18.70;99.90;;;;;;7393357;19;20488;-79
2022/05/06 12:35:29;;;;;;;5.38;2.97;;;18.80;99.90;;;;;;7395228;19;20150;-79
2022/05/06 12:37:57;;;;;;;4.95;3.15;;;18.70;99.90;;;;;;7388173;19;20126;-79
2022/05/06 12:40:30;;;;;;;4.40;2.60;;;18.70;99.90;;;;;;7389966;19;20131;-75
2022/05/06 12:43:10;;;;;;;4.75;2.80;;;18.90;99.90;;;;;;7390527;19;20161;-80
2022/05/06 12:45:49;;;;;;;4.35;2.83;;;18.90;99.90;;;;;;7398729;19;20138;-79
2022/05/06 12:51:02;;;;;;;5.38;2.58;;;18.80;99.90;;;;;;7388254;19;20142;-79
2022/05/06 12:53:29;;;;;;;3.60;2.40;;;18.80;99.90;;;;;;7390857;19;20154;-75
2022/05/06 12:55:55;;;;;;;3.92;2.60;;;18.80;99.90;;;;;;7388445;19;20489;-76
2022/05/06 12:58:27;;;;;;;5.05;2.75;;;18.80;99.90;;;;;;7391598;19;20130;-79
2022/05/06 13:01:00;;;;;;;3.42;2.65;;;18.90;99.90;;;;;;7391483;19;20130;-79
2022/05/06 13:03:26;;;;;;;3.22;2.38;;;18.90;99.90;;;;;;7389057;19;20153;-78
2022/05/06 13:05:53;;;;;;;4.30;2.60;;;18.90;99.90;;;;;;7390229;19;20530;-76
2022/05/06 13:08:20;;;;;;;2.70;2.40;;;18.90;99.90;;;;;;7398018;19;20448;-79
2022/05/06 13:10:47;;;;;;;4.47;2.50;;;18.90;99.90;;;;;;7390131;19;20145;-77
2022/05/06 13:13:15;;;;;;;3.53;2.60;;;19.00;99.90;;;;;;7387788;19;20135;-78
2022/05/06 13:15:42;;;;;;;3.47;2.60;;;19.00;99.90;;;;;;7388490;19;20479;-76
2022/05/06 13:18:08;;;;;;;4.05;2.13;;;19.10;99.90;;;;;;7386648;19;20214;-76
2022/05/06 13:20:34;;;;;;;3.35;2.38;;;19.00;99.90;;;;;;7391613;19;20152;-76
2022/05/06 13:23:00;;;;;;;4.18;2.40;;;19.00;99.90;;;;;;7391180;19;20479;-78
2022/05/06 13:25:26;;;;;;;4.25;2.88;;;18.90;99.90;;;;;;7394582;19;20158;-77
2022/05/06 13:27:53;;;;;;;2.88;2.58;;;19.00;99.90;;;;;;7391283;19;20210;-80
2022/05/06 13:30:19;;;;;;;3.25;2.95;;;19.00;99.90;;;;;;7384727;19;20150;-79